sensor_id;sensor_type;location;lat;lon;timestamp;temperature;humidity
74602;DHT22;63112;42.624;26.276;2022-08-25T06:14:31;29.90;28.20
74602;DHT22;63112;42.624;26.276;2022-08-25T06:16:57;30.00;28.20
74602;DHT22;63112;42.624;26.276;2022-08-25T06:19:24;30.00;28.00
74602;DHT22;63112;42.624;26.276;2022-08-25T06:22:58;29.90;28.00
74602;DHT22;63112;42.624;26.276;2022-08-25T06:25:24;29.30;27.90
74602;DHT22;63112;42.624;26.276;2022-08-25T06:27:50;28.40;30.30
74602;DHT22;63112;42.624;26.276;2022-08-25T06:30:16;28.20;31.20
74602;DHT22;63112;42.624;26.276;2022-08-25T06:32:43;28.10;31.20
74602;DHT22;63112;42.624;26.276;2022-08-25T06:35:10;28.10;31.20
74602;DHT22;63112;42.624;26.276;2022-08-25T06:39:47;28.30;30.60
74602;DHT22;63112;42.624;26.276;2022-08-25T06:42:12;28.30;31.10
74602;DHT22;63112;42.624;26.276;2022-08-25T06:44:38;28.30;31.30
74602;DHT22;63112;42.624;26.276;2022-08-25T06:47:05;28.20;31.10
74602;DHT22;63112;42.624;26.276;2022-08-25T06:49:30;28.10;30.90
74602;DHT22;63112;42.624;26.276;2022-08-25T06:51:56;28.00;31.00
74602;DHT22;63112;42.624;26.276;2022-08-25T06:54:21;28.10;31.10
74602;DHT22;63112;42.624;26.276;2022-08-25T06:56:47;28.20;32.00
74602;DHT22;63112;42.624;26.276;2022-08-25T06:59:13;28.30;31.30
74602;DHT22;63112;42.624;26.276;2022-08-25T07:01:38;28.40;31.40
74602;DHT22;63112;42.624;26.276;2022-08-25T07:04:04;28.60;31.50
74602;DHT22;63112;42.624;26.276;2022-08-25T07:06:31;28.80;31.60
74602;DHT22;63112;42.624;26.276;2022-08-25T07:08:59;28.90;30.50
74602;DHT22;63112;42.624;26.276;2022-08-25T07:11:25;28.80;31.60
74602;DHT22;63112;42.624;26.276;2022-08-25T07:13:51;29.00;31.10
74602;DHT22;63112;42.624;26.276;2022-08-25T07:16:17;28.90;31.60
74602;DHT22;63112;42.624;26.276;2022-08-25T07:18:44;28.80;31.60
74602;DHT22;63112;42.624;26.276;2022-08-25T07:21:11;28.80;31.60
74602;DHT22;63112;42.624;26.276;2022-08-25T07:23:37;29.00;31.80
74602;DHT22;63112;42.624;26.276;2022-08-25T07:26:10;29.20;31.90
74602;DHT22;63112;42.624;26.276;2022-08-25T07:28:35;29.30;30.70
74602;DHT22;63112;42.624;26.276;2022-08-25T07:31:01;29.70;29.90
74602;DHT22;63112;42.624;26.276;2022-08-25T07:33:26;29.70;30.40
74602;DHT22;63112;42.624;26.276;2022-08-25T07:35:52;29.60;30.20
74602;DHT22;63112;42.624;26.276;2022-08-25T07:38:18;29.90;30.00
74602;DHT22;63112;42.624;26.276;2022-08-25T07:40:43;29.60;30.60
74602;DHT22;63112;42.624;26.276;2022-08-25T07:43:09;29.70;29.90
74602;DHT22;63112;42.624;26.276;2022-08-25T07:45:36;29.70;31.00
74602;DHT22;63112;42.624;26.276;2022-08-25T07:48:06;29.70;31.30
74602;DHT22;63112;42.624;26.276;2022-08-25T07:50:34;29.60;29.80
74602;DHT22;63112;42.624;26.276;2022-08-25T07:53:00;29.70;30.00
74602;DHT22;63112;42.624;26.276;2022-08-25T07:55:26;29.70;30.00
74602;DHT22;63112;42.624;26.276;2022-08-25T07:57:52;29.90;29.90
74602;DHT22;63112;42.624;26.276;2022-08-25T08:00:18;30.00;29.20
74602;DHT22;63112;42.624;26.276;2022-08-25T08:02:44;29.90;29.30
74602;DHT22;63112;42.624;26.276;2022-08-25T08:05:10;29.80;29.20
74602;DHT22;63112;42.624;26.276;2022-08-25T08:07:35;29.80;29.20
74602;DHT22;63112;42.624;26.276;2022-08-25T08:10:02;30.00;29.30
74602;DHT22;63112;42.624;26.276;2022-08-25T08:12:28;30.30;28.20
74602;DHT22;63112;42.624;26.276;2022-08-25T08:14:54;30.40;28.00
74602;DHT22;63112;42.624;26.276;2022-08-25T08:17:20;30.40;28.90
74602;DHT22;63112;42.624;26.276;2022-08-25T08:19:45;30.40;28.40
74602;DHT22;63112;42.624;26.276;2022-08-25T08:22:11;30.50;28.00
74602;DHT22;63112;42.624;26.276;2022-08-25T08:24:40;30.70;28.10
74602;DHT22;63112;42.624;26.276;2022-08-25T08:27:06;31.10;27.60
74602;DHT22;63112;42.624;26.276;2022-08-25T08:29:36;31.20;27.50
74602;DHT22;63112;42.624;26.276;2022-08-25T08:32:02;31.20;27.20
74602;DHT22;63112;42.624;26.276;2022-08-25T08:34:28;31.10;27.60
74602;DHT22;63112;42.624;26.276;2022-08-25T08:36:54;31.10;27.60
74602;DHT22;63112;42.624;26.276;2022-08-25T08:39:20;31.20;26.80
74602;DHT22;63112;42.624;26.276;2022-08-25T08:47:27;31.50;26.90
74602;DHT22;63112;42.624;26.276;2022-08-25T08:52:55;31.70;25.40
74602;DHT22;63112;42.624;26.276;2022-08-25T08:55:34;31.80;25.00
74602;DHT22;63112;42.624;26.276;2022-08-25T08:58:10;31.50;26.40
74602;DHT22;63112;42.624;26.276;2022-08-25T09:00:42;32.00;25.80
74602;DHT22;63112;42.624;26.276;2022-08-25T09:03:10;31.70;25.60
74602;DHT22;63112;42.624;26.276;2022-08-25T09:05:55;31.00;27.60
74602;DHT22;63112;42.624;26.276;2022-08-25T09:08:21;31.70;27.80
74602;DHT22;63112;42.624;26.276;2022-08-25T09:11:21;32.30;26.60
74602;DHT22;63112;42.624;26.276;2022-08-25T09:24:53;31.70;26.80
74602;DHT22;63112;42.624;26.276;2022-08-25T09:30:00;31.20;28.00
74602;DHT22;63112;42.624;26.276;2022-08-25T09:32:33;31.50;27.60
74602;DHT22;63112;42.624;26.276;2022-08-25T09:34:59;31.10;28.50
74602;DHT22;63112;42.624;26.276;2022-08-25T09:37:25;31.30;28.10
74602;DHT22;63112;42.624;26.276;2022-08-25T09:39:51;31.70;28.20
74602;DHT22;63112;42.624;26.276;2022-08-25T09:42:17;31.80;27.10
74602;DHT22;63112;42.624;26.276;2022-08-25T09:44:43;31.90;27.20
74602;DHT22;63112;42.624;26.276;2022-08-25T09:54:48;32.00;27.50
74602;DHT22;63112;42.624;26.276;2022-08-25T10:02:40;32.40;26.80
74602;DHT22;63112;42.624;26.276;2022-08-25T10:05:28;32.10;26.80
74602;DHT22;63112;42.624;26.276;2022-08-25T10:07:57;32.30;26.40
74602;DHT22;63112;42.624;26.276;2022-08-25T10:10:34;32.30;27.10
74602;DHT22;63112;42.624;26.276;2022-08-25T10:13:02;32.50;26.30
74602;DHT22;63112;42.624;26.276;2022-08-25T10:15:36;32.80;25.80
74602;DHT22;63112;42.624;26.276;2022-08-25T10:23:25;33.30;25.70
74602;DHT22;63112;42.624;26.276;2022-08-25T10:25:51;33.40;25.30
74602;DHT22;63112;42.624;26.276;2022-08-25T10:33:31;33.70;25.50
74602;DHT22;63112;42.624;26.276;2022-08-25T10:40:58;34.20;24.20
74602;DHT22;63112;42.624;26.276;2022-08-25T10:45:58;34.20;24.20
74602;DHT22;63112;42.624;26.276;2022-08-25T10:51:02;33.70;24.00
74602;DHT22;63112;42.624;26.276;2022-08-25T10:56:21;34.30;24.20
74602;DHT22;63112;42.624;26.276;2022-08-25T10:58:54;34.30;24.20
74602;DHT22;63112;42.624;26.276;2022-08-25T11:06:34;34.20;24.20
74602;DHT22;63112;42.624;26.276;2022-08-25T11:09:04;34.00;24.10
74602;DHT22;63112;42.624;26.276;2022-08-25T11:11:32;34.10;24.10
74602;DHT22;63112;42.624;26.276;2022-08-25T11:14:00;34.50;23.80
74602;DHT22;63112;42.624;26.276;2022-08-25T11:16:35;34.10;24.10
74602;DHT22;63112;42.624;26.276;2022-08-25T11:21:46;33.60;23.90
74602;DHT22;63112;42.624;26.276;2022-08-25T11:26:41;34.40;23.20
74602;DHT22;63112;42.624;26.276;2022-08-25T11:29:13;34.30;23.40
74602;DHT22;63112;42.624;26.276;2022-08-25T11:31:41;34.20;23.30
74602;DHT22;63112;42.624;26.276;2022-08-25T11:34:08;34.60;22.60
74602;DHT22;63112;42.624;26.276;2022-08-25T11:36:36;34.80;22.90
74602;DHT22;63112;42.624;26.276;2022-08-25T11:41:41;35.30;22.10
74602;DHT22;63112;42.624;26.276;2022-08-25T11:46:55;34.90;21.60
74602;DHT22;63112;42.624;26.276;2022-08-25T11:49:34;34.80;22.10
74602;DHT22;63112;42.624;26.276;2022-08-25T11:52:34;34.90;21.30
74602;DHT22;63112;42.624;26.276;2022-08-25T11:54:52;35.20;21.50
74602;DHT22;63112;42.624;26.276;2022-08-25T11:57:22;35.20;20.40
74602;DHT22;63112;42.624;26.276;2022-08-25T12:04:56;35.30;21.10
74602;DHT22;63112;42.624;26.276;2022-08-25T12:07:26;35.60;20.70
74602;DHT22;63112;42.624;26.276;2022-08-25T12:17:40;36.00;20.10
74602;DHT22;63112;42.624;26.276;2022-08-25T12:20:06;35.80;20.00
74602;DHT22;63112;42.624;26.276;2022-08-25T12:25:07;35.60;20.10
74602;DHT22;63112;42.624;26.276;2022-08-25T12:40:32;35.40;20.30
74602;DHT22;63112;42.624;26.276;2022-08-25T12:42:59;35.00;21.20
74602;DHT22;63112;42.624;26.276;2022-08-25T12:45:34;35.40;20.20
74602;DHT22;63112;42.624;26.276;2022-08-25T12:50:45;36.10;19.60
74602;DHT22;63112;42.624;26.276;2022-08-25T12:53:27;36.00;19.40
74602;DHT22;63112;42.624;26.276;2022-08-25T12:56:05;35.80;19.50
74602;DHT22;63112;42.624;26.276;2022-08-25T12:58:34;35.70;19.90
74602;DHT22;63112;42.624;26.276;2022-08-25T13:01:13;35.60;20.00
74602;DHT22;63112;42.624;26.276;2022-08-25T13:03:57;35.70;20.20
74602;DHT22;63112;42.624;26.276;2022-08-25T13:06:33;35.50;20.20
74602;DHT22;63112;42.624;26.276;2022-08-25T13:11:39;35.60;20.50
74602;DHT22;63112;42.624;26.276;2022-08-25T13:16:39;35.20;19.90
74602;DHT22;63112;42.624;26.276;2022-08-25T13:19:05;35.10;20.70
74602;DHT22;63112;42.624;26.276;2022-08-25T13:21:35;34.80;20.70
74602;DHT22;63112;42.624;26.276;2022-08-25T13:24:01;34.80;20.90
74602;DHT22;63112;42.624;26.276;2022-08-25T13:26:35;35.00;20.50
74602;DHT22;63112;42.624;26.276;2022-08-25T13:29:12;35.10;20.50
74602;DHT22;63112;42.624;26.276;2022-08-25T13:31:48;35.50;19.80
74602;DHT22;63112;42.624;26.276;2022-08-25T13:34:19;35.50;20.10
74602;DHT22;63112;42.624;26.276;2022-08-25T13:36:46;35.80;19.20
74602;DHT22;63112;42.624;26.276;2022-08-25T13:39:31;35.60;19.10
74602;DHT22;63112;42.624;26.276;2022-08-25T13:42:00;35.10;19.80
74602;DHT22;63112;42.624;26.276;2022-08-25T13:44:27;35.30;19.50
74602;DHT22;63112;42.624;26.276;2022-08-25T13:47:06;35.50;18.90
74602;DHT22;63112;42.624;26.276;2022-08-25T13:49:33;34.80;20.00
74602;DHT22;63112;42.624;26.276;2022-08-25T13:51:59;35.10;19.70
74602;DHT22;63112;42.624;26.276;2022-08-25T13:54:28;35.60;19.40
74602;DHT22;63112;42.624;26.276;2022-08-25T13:57:02;36.00;19.00
74602;DHT22;63112;42.624;26.276;2022-08-25T13:59:31;35.30;18.70
74602;DHT22;63112;42.624;26.276;2022-08-25T14:01:58;34.80;19.20
74602;DHT22;63112;42.624;26.276;2022-08-25T14:09:36;35.30;19.70
74602;DHT22;63112;42.624;26.276;2022-08-25T14:12:03;35.10;19.50
74602;DHT22;63112;42.624;26.276;2022-08-25T14:14:30;35.20;19.40
74602;DHT22;63112;42.624;26.276;2022-08-25T14:17:00;34.70;19.40
74602;DHT22;63112;42.624;26.276;2022-08-25T14:19:27;34.90;18.70
74602;DHT22;63112;42.624;26.276;2022-08-25T14:21:53;34.60;18.60
74602;DHT22;63112;42.624;26.276;2022-08-25T14:24:20;34.70;18.70
74602;DHT22;63112;42.624;26.276;2022-08-25T14:26:47;34.80;18.20
74602;DHT22;63112;42.624;26.276;2022-08-25T14:29:12;34.90;18.60
74602;DHT22;63112;42.624;26.276;2022-08-25T14:31:39;34.80;18.20
74602;DHT22;63112;42.624;26.276;2022-08-25T14:34:26;34.50;16.40
74602;DHT22;63112;42.624;26.276;2022-08-25T14:36:53;34.40;17.90
74602;DHT22;63112;42.624;26.276;2022-08-25T14:39:19;34.20;17.30
74602;DHT22;63112;42.624;26.276;2022-08-25T14:41:45;34.10;18.10
74602;DHT22;63112;42.624;26.276;2022-08-25T14:44:11;33.90;17.20
74602;DHT22;63112;42.624;26.276;2022-08-25T14:46:37;33.80;17.90
74602;DHT22;63112;42.624;26.276;2022-08-25T14:49:06;32.50;24.20
74602;DHT22;63112;42.624;26.276;2022-08-25T14:51:32;31.40;27.80
74602;DHT22;63112;42.624;26.276;2022-08-25T14:53:59;30.60;29.60
74602;DHT22;63112;42.624;26.276;2022-08-25T14:56:26;30.00;31.30
74602;DHT22;63112;42.624;26.276;2022-08-25T14:58:51;29.70;32.20
74602;DHT22;63112;42.624;26.276;2022-08-25T15:01:17;29.50;32.10
74602;DHT22;63112;42.624;26.276;2022-08-25T15:03:44;29.50;32.10
74602;DHT22;63112;42.624;26.276;2022-08-25T15:06:11;29.50;32.90
74602;DHT22;63112;42.624;26.276;2022-08-25T15:08:37;29.50;32.10
74602;DHT22;63112;42.624;26.276;2022-08-25T15:11:21;29.40;32.70
74602;DHT22;63112;42.624;26.276;2022-08-25T15:13:47;29.20;33.80
74602;DHT22;63112;42.624;26.276;2022-08-25T15:16:14;29.40;33.70
74602;DHT22;63112;42.624;26.276;2022-08-25T15:18:40;29.00;34.60
74602;DHT22;63112;42.624;26.276;2022-08-25T15:21:08;29.20;34.60
74602;DHT22;63112;42.624;26.276;2022-08-25T15:23:33;29.20;35.00
74602;DHT22;63112;42.624;26.276;2022-08-25T15:25:59;29.50;33.70
74602;DHT22;63112;42.624;26.276;2022-08-25T15:28:25;29.60;33.20
74602;DHT22;63112;42.624;26.276;2022-08-25T15:30:51;29.40;33.10
74602;DHT22;63112;42.624;26.276;2022-08-25T15:33:16;29.20;33.80
74602;DHT22;63112;42.624;26.276;2022-08-25T15:35:45;29.20;33.70
74602;DHT22;63112;42.624;26.276;2022-08-25T15:38:11;29.30;34.50
74602;DHT22;63112;42.624;26.276;2022-08-25T15:40:36;29.20;33.60
74602;DHT22;63112;42.624;26.276;2022-08-25T15:43:04;29.20;33.70
74602;DHT22;63112;42.624;26.276;2022-08-25T15:45:29;29.20;33.40
74602;DHT22;63112;42.624;26.276;2022-08-25T15:47:56;29.10;34.30
74602;DHT22;63112;42.624;26.276;2022-08-25T15:50:22;29.00;34.50
74602;DHT22;63112;42.624;26.276;2022-08-25T15:52:47;29.00;34.40
74602;DHT22;63112;42.624;26.276;2022-08-25T15:55:13;28.90;34.70
74602;DHT22;63112;42.624;26.276;2022-08-25T15:57:39;28.80;35.10
74602;DHT22;63112;42.624;26.276;2022-08-25T16:00:06;28.40;35.40
74602;DHT22;63112;42.624;26.276;2022-08-25T16:02:32;28.10;36.10
74602;DHT22;63112;42.624;26.276;2022-08-25T16:04:59;28.00;36.50
74602;DHT22;63112;42.624;26.276;2022-08-25T16:07:25;28.00;36.40
74602;DHT22;63112;42.624;26.276;2022-08-25T16:09:54;27.80;37.10
74602;DHT22;63112;42.624;26.276;2022-08-25T16:12:19;27.90;37.10
74602;DHT22;63112;42.624;26.276;2022-08-25T16:14:45;27.80;37.30
74602;DHT22;63112;42.624;26.276;2022-08-25T16:17:11;27.80;37.30
74602;DHT22;63112;42.624;26.276;2022-08-25T16:19:37;27.90;37.30
74602;DHT22;63112;42.624;26.276;2022-08-25T16:22:02;27.60;37.20
74602;DHT22;63112;42.624;26.276;2022-08-25T16:24:28;27.60;37.50
74602;DHT22;63112;42.624;26.276;2022-08-25T16:26:53;27.60;37.50
74602;DHT22;63112;42.624;26.276;2022-08-25T16:29:24;27.60;38.80
74602;DHT22;63112;42.624;26.276;2022-08-25T16:31:49;27.60;38.20
74602;DHT22;63112;42.624;26.276;2022-08-25T16:34:15;27.70;38.30
74602;DHT22;63112;42.624;26.276;2022-08-25T16:36:40;27.50;38.90
74602;DHT22;63112;42.624;26.276;2022-08-25T16:39:06;27.60;39.10
74602;DHT22;63112;42.624;26.276;2022-08-25T16:41:32;27.50;39.40
74602;DHT22;63112;42.624;26.276;2022-08-25T16:44:01;27.60;39.20
74602;DHT22;63112;42.624;26.276;2022-08-25T16:46:27;27.50;40.20
74602;DHT22;63112;42.624;26.276;2022-08-25T16:48:53;27.50;39.80
74602;DHT22;63112;42.624;26.276;2022-08-25T16:51:19;27.40;39.40
74602;DHT22;63112;42.624;26.276;2022-08-25T16:53:45;27.30;40.00
74602;DHT22;63112;42.624;26.276;2022-08-25T16:56:30;27.40;40.20
74602;DHT22;63112;42.624;26.276;2022-08-25T16:58:57;27.30;40.30
74602;DHT22;63112;42.624;26.276;2022-08-25T17:01:24;27.30;40.20
74602;DHT22;63112;42.624;26.276;2022-08-25T17:03:51;27.20;40.80
74602;DHT22;63112;42.624;26.276;2022-08-25T17:06:17;27.20;41.30
74602;DHT22;63112;42.624;26.276;2022-08-25T17:08:42;27.30;41.80
74602;DHT22;63112;42.624;26.276;2022-08-25T17:11:15;27.30;40.80
74602;DHT22;63112;42.624;26.276;2022-08-25T17:13:43;27.30;40.20
74602;DHT22;63112;42.624;26.276;2022-08-25T17:16:09;27.30;40.50
74602;DHT22;63112;42.624;26.276;2022-08-25T17:18:35;27.20;40.70
74602;DHT22;63112;42.624;26.276;2022-08-25T17:21:11;27.20;42.40
74602;DHT22;63112;42.624;26.276;2022-08-25T17:23:38;27.10;41.50
74602;DHT22;63112;42.624;26.276;2022-08-25T17:26:04;26.90;41.50
74602;DHT22;63112;42.624;26.276;2022-08-25T17:28:30;26.90;42.80
74602;DHT22;63112;42.624;26.276;2022-08-25T17:30:56;26.70;42.10
74602;DHT22;63112;42.624;26.276;2022-08-25T17:33:22;26.60;42.60
74602;DHT22;63112;42.624;26.276;2022-08-25T17:35:49;26.50;42.60
74602;DHT22;63112;42.624;26.276;2022-08-25T17:38:16;26.40;42.50
74602;DHT22;63112;42.624;26.276;2022-08-25T17:40:44;26.40;42.50
74602;DHT22;63112;42.624;26.276;2022-08-25T17:43:10;26.40;42.50
74602;DHT22;63112;42.624;26.276;2022-08-25T17:45:36;26.20;42.40
74602;DHT22;63112;42.624;26.276;2022-08-25T17:48:02;26.20;43.00
74602;DHT22;63112;42.624;26.276;2022-08-25T17:50:27;26.20;43.10
74602;DHT22;63112;42.624;26.276;2022-08-25T17:52:53;26.10;43.50
74602;DHT22;63112;42.624;26.276;2022-08-25T17:55:19;26.10;43.30
74602;DHT22;63112;42.624;26.276;2022-08-25T17:57:49;26.10;43.60
74602;DHT22;63112;42.624;26.276;2022-08-25T18:00:15;26.10;43.90
74602;DHT22;63112;42.624;26.276;2022-08-25T18:02:41;26.10;43.60
74602;DHT22;63112;42.624;26.276;2022-08-25T18:05:08;26.00;44.20
74602;DHT22;63112;42.624;26.276;2022-08-25T18:07:33;26.00;44.50
74602;DHT22;63112;42.624;26.276;2022-08-25T18:10:01;26.00;44.20
74602;DHT22;63112;42.624;26.276;2022-08-25T18:12:27;25.90;44.40
74602;DHT22;63112;42.624;26.276;2022-08-25T18:14:52;26.00;44.60
74602;DHT22;63112;42.624;26.276;2022-08-25T18:17:18;26.00;43.70
74602;DHT22;63112;42.624;26.276;2022-08-25T18:19:43;26.10;43.50
74602;DHT22;63112;42.624;26.276;2022-08-25T18:22:10;25.90;44.00
74602;DHT22;63112;42.624;26.276;2022-08-25T18:24:36;25.90;44.10
74602;DHT22;63112;42.624;26.276;2022-08-25T18:27:02;25.70;44.70
74602;DHT22;63112;42.624;26.276;2022-08-25T18:29:27;25.70;44.90
74602;DHT22;63112;42.624;26.276;2022-08-25T18:31:53;25.70;45.00
74602;DHT22;63112;42.624;26.276;2022-08-25T18:34:19;25.90;44.60
74602;DHT22;63112;42.624;26.276;2022-08-25T18:36:46;25.90;44.70
74602;DHT22;63112;42.624;26.276;2022-08-25T18:39:12;25.90;44.80
74602;DHT22;63112;42.624;26.276;2022-08-25T18:41:56;25.50;45.10
74602;DHT22;63112;42.624;26.276;2022-08-25T18:44:21;25.40;45.80
74602;DHT22;63112;42.624;26.276;2022-08-25T18:46:47;25.40;46.10
74602;DHT22;63112;42.624;26.276;2022-08-25T18:49:13;25.30;46.40
74602;DHT22;63112;42.624;26.276;2022-08-25T18:51:39;25.30;46.40
74602;DHT22;63112;42.624;26.276;2022-08-25T18:54:05;25.40;45.80
74602;DHT22;63112;42.624;26.276;2022-08-25T18:56:30;25.50;45.70
74602;DHT22;63112;42.624;26.276;2022-08-25T18:58:56;25.60;46.20
74602;DHT22;63112;42.624;26.276;2022-08-25T19:01:21;25.60;45.20
74602;DHT22;63112;42.624;26.276;2022-08-25T19:03:47;25.40;45.80
74602;DHT22;63112;42.624;26.276;2022-08-25T19:06:13;25.40;45.80
74602;DHT22;63112;42.624;26.276;2022-08-25T19:08:38;25.50;45.00
74602;DHT22;63112;42.624;26.276;2022-08-25T19:11:05;25.50;45.10
74602;DHT22;63112;42.624;26.276;2022-08-25T19:13:31;25.70;45.40
74602;DHT22;63112;42.624;26.276;2022-08-25T19:15:57;25.80;44.90
74602;DHT22;63112;42.624;26.276;2022-08-25T19:18:23;25.70;44.30
74602;DHT22;63112;42.624;26.276;2022-08-25T19:20:49;25.80;43.70
74602;DHT22;63112;42.624;26.276;2022-08-25T19:23:15;25.70;43.80
74602;DHT22;63112;42.624;26.276;2022-08-25T19:25:41;25.80;44.10
74602;DHT22;63112;42.624;26.276;2022-08-25T19:28:07;25.70;43.80
74602;DHT22;63112;42.624;26.276;2022-08-25T19:30:33;25.70;44.60
74602;DHT22;63112;42.624;26.276;2022-08-25T19:33:00;25.50;44.20
74602;DHT22;63112;42.624;26.276;2022-08-25T19:35:28;25.30;45.10
74602;DHT22;63112;42.624;26.276;2022-08-25T19:37:54;25.20;45.50
74602;DHT22;63112;42.624;26.276;2022-08-25T19:40:20;25.30;45.60
74602;DHT22;63112;42.624;26.276;2022-08-25T19:42:46;25.30;45.70
74602;DHT22;63112;42.624;26.276;2022-08-25T19:45:13;25.30;45.90
74602;DHT22;63112;42.624;26.276;2022-08-25T19:47:39;25.20;46.10
74602;DHT22;63112;42.624;26.276;2022-08-25T19:50:06;25.20;46.00
74602;DHT22;63112;42.624;26.276;2022-08-25T19:52:32;25.20;45.90
74602;DHT22;63112;42.624;26.276;2022-08-25T19:54:58;25.20;45.60
74602;DHT22;63112;42.624;26.276;2022-08-25T19:57:26;25.20;45.30
74602;DHT22;63112;42.624;26.276;2022-08-25T19:59:52;25.20;44.60
74602;DHT22;63112;42.624;26.276;2022-08-25T20:02:22;25.30;44.20
74602;DHT22;63112;42.624;26.276;2022-08-25T20:04:51;25.30;42.90
74602;DHT22;63112;42.624;26.276;2022-08-25T20:07:18;25.40;43.10
74602;DHT22;63112;42.624;26.276;2022-08-25T20:09:43;25.40;43.60
74602;DHT22;63112;42.624;26.276;2022-08-25T20:12:09;25.40;43.30
74602;DHT22;63112;42.624;26.276;2022-08-25T20:14:35;25.40;43.50
74602;DHT22;63112;42.624;26.276;2022-08-25T20:17:01;25.40;43.20
74602;DHT22;63112;42.624;26.276;2022-08-25T20:19:27;25.50;41.90
74602;DHT22;63112;42.624;26.276;2022-08-25T20:21:53;25.50;41.90
74602;DHT22;63112;42.624;26.276;2022-08-25T20:24:19;25.60;38.00
74602;DHT22;63112;42.624;26.276;2022-08-25T20:27:03;25.70;36.40
74602;DHT22;63112;42.624;26.276;2022-08-25T20:29:29;25.80;36.50
74602;DHT22;63112;42.624;26.276;2022-08-25T20:31:55;25.90;31.70
74602;DHT22;63112;42.624;26.276;2022-08-25T20:34:20;25.90;32.50
74602;DHT22;63112;42.624;26.276;2022-08-25T20:36:46;25.90;31.00
74602;DHT22;63112;42.624;26.276;2022-08-25T20:39:12;25.90;29.90
74602;DHT22;63112;42.624;26.276;2022-08-25T20:41:38;25.90;29.90
74602;DHT22;63112;42.624;26.276;2022-08-25T20:44:04;26.00;29.90
74602;DHT22;63112;42.624;26.276;2022-08-25T20:46:33;26.00;29.10
74602;DHT22;63112;42.624;26.276;2022-08-25T20:48:59;25.90;29.90
74602;DHT22;63112;42.624;26.276;2022-08-25T20:51:24;25.90;30.50
74602;DHT22;63112;42.624;26.276;2022-08-25T20:53:50;25.90;31.60
74602;DHT22;63112;42.624;26.276;2022-08-25T20:56:16;25.90;30.20
74602;DHT22;63112;42.624;26.276;2022-08-25T20:58:42;25.80;29.80
74602;DHT22;63112;42.624;26.276;2022-08-25T21:01:16;25.80;29.70
74602;DHT22;63112;42.624;26.276;2022-08-25T21:03:42;25.90;26.80
74602;DHT22;63112;42.624;26.276;2022-08-25T21:06:09;26.00;26.90
74602;DHT22;63112;42.624;26.276;2022-08-25T21:08:37;26.00;25.00
74602;DHT22;63112;42.624;26.276;2022-08-25T21:11:12;26.00;24.70
74602;DHT22;63112;42.624;26.276;2022-08-25T21:13:38;26.10;23.90
74602;DHT22;63112;42.624;26.276;2022-08-25T21:16:04;26.10;23.80
74602;DHT22;63112;42.624;26.276;2022-08-25T21:18:30;26.10;24.00
74602;DHT22;63112;42.624;26.276;2022-08-25T21:20:56;26.10;23.60
74602;DHT22;63112;42.624;26.276;2022-08-25T21:23:22;26.10;23.50
74602;DHT22;63112;42.624;26.276;2022-08-25T21:25:47;26.10;23.70
74602;DHT22;63112;42.624;26.276;2022-08-25T21:28:14;26.20;22.90
74602;DHT22;63112;42.624;26.276;2022-08-25T21:30:42;26.20;22.20
74602;DHT22;63112;42.624;26.276;2022-08-25T21:33:07;26.10;23.70
74602;DHT22;63112;42.624;26.276;2022-08-25T21:35:33;26.10;23.00
74602;DHT22;63112;42.624;26.276;2022-08-25T21:38:02;26.10;23.20
74602;DHT22;63112;42.624;26.276;2022-08-25T21:40:28;26.10;22.50
74602;DHT22;63112;42.624;26.276;2022-08-25T21:42:53;26.10;22.80
74602;DHT22;63112;42.624;26.276;2022-08-25T21:45:19;26.10;22.90
74602;DHT22;63112;42.624;26.276;2022-08-25T21:47:45;26.10;22.30
74602;DHT22;63112;42.624;26.276;2022-08-25T21:50:11;26.20;21.10
74602;DHT22;63112;42.624;26.276;2022-08-25T21:52:37;26.30;21.10
74602;DHT22;63112;42.624;26.276;2022-08-25T21:55:03;26.20;21.20
74602;DHT22;63112;42.624;26.276;2022-08-25T21:57:28;26.20;21.30
74602;DHT22;63112;42.624;26.276;2022-08-25T21:59:54;26.10;20.80
74602;DHT22;63112;42.624;26.276;2022-08-25T22:02:20;26.10;21.80
74602;DHT22;63112;42.624;26.276;2022-08-25T22:04:49;26.10;21.50
74602;DHT22;63112;42.624;26.276;2022-08-25T22:07:15;26.10;21.40
74602;DHT22;63112;42.624;26.276;2022-08-25T22:09:41;26.10;21.20
74602;DHT22;63112;42.624;26.276;2022-08-25T22:12:06;26.10;22.10
74602;DHT22;63112;42.624;26.276;2022-08-25T22:14:32;26.00;22.30
74602;DHT22;63112;42.624;26.276;2022-08-25T22:16:58;26.00;21.50
74602;DHT22;63112;42.624;26.276;2022-08-25T22:19:24;26.10;20.90
74602;DHT22;63112;42.624;26.276;2022-08-25T22:21:50;26.10;20.80
74602;DHT22;63112;42.624;26.276;2022-08-25T22:24:16;26.10;21.30
74602;DHT22;63112;42.624;26.276;2022-08-25T22:26:42;26.00;21.60
74602;DHT22;63112;42.624;26.276;2022-08-25T22:29:08;25.90;21.80
74602;DHT22;63112;42.624;26.276;2022-08-25T22:31:34;25.90;21.90
74602;DHT22;63112;42.624;26.276;2022-08-25T22:34:00;25.80;21.80
74602;DHT22;63112;42.624;26.276;2022-08-25T22:36:27;25.90;21.90
74602;DHT22;63112;42.624;26.276;2022-08-25T22:38:53;25.80;22.10
74602;DHT22;63112;42.624;26.276;2022-08-25T22:41:19;25.80;22.40
74602;DHT22;63112;42.624;26.276;2022-08-25T22:43:45;25.70;22.30
74602;DHT22;63112;42.624;26.276;2022-08-25T22:46:11;25.60;22.70
74602;DHT22;63112;42.624;26.276;2022-08-25T22:48:37;25.60;22.50
74602;DHT22;63112;42.624;26.276;2022-08-25T22:51:07;25.60;22.80
74602;DHT22;63112;42.624;26.276;2022-08-25T22:53:33;25.60;22.60
74602;DHT22;63112;42.624;26.276;2022-08-25T22:55:59;25.50;22.50
74602;DHT22;63112;42.624;26.276;2022-08-25T22:58:25;25.60;22.10
74602;DHT22;63112;42.624;26.276;2022-08-25T23:00:50;25.50;22.50
74602;DHT22;63112;42.624;26.276;2022-08-25T23:03:16;25.50;22.60
74602;DHT22;63112;42.624;26.276;2022-08-25T23:05:41;25.50;22.70
74602;DHT22;63112;42.624;26.276;2022-08-25T23:08:07;25.50;22.00
74602;DHT22;63112;42.624;26.276;2022-08-25T23:10:33;25.50;22.70
74602;DHT22;63112;42.624;26.276;2022-08-25T23:12:59;25.40;23.20
74602;DHT22;63112;42.624;26.276;2022-08-25T23:15:24;25.30;23.20
74602;DHT22;63112;42.624;26.276;2022-08-25T23:17:50;25.30;23.20
74602;DHT22;63112;42.624;26.276;2022-08-25T23:20:16;25.40;23.00
74602;DHT22;63112;42.624;26.276;2022-08-25T23:23:00;25.30;23.40
74602;DHT22;63112;42.624;26.276;2022-08-25T23:25:25;25.30;23.40
74602;DHT22;63112;42.624;26.276;2022-08-25T23:27:51;25.40;23.30
74602;DHT22;63112;42.624;26.276;2022-08-25T23:30:16;25.40;23.10